Portada
METAR-TAF:

METAR-TAF

Aeroports :

Chichén Itzá, Mèxic

latitud: 20-38-30N, longitud: 088-26-58W, altitud: 31 m

Observació

L'informe es va fer fa 6 hores i 5 minuts, a les 22:44 UTC
Vent calma
Temperatura 27°C
Humitat 79%
Pressió 1014 hPa
Visibilitat: 12.9 km
Cel ennuvolat a una alçada de 1500 ft
Cel ennuvolat a una alçada de 25000 ft

METAR: MMCT 052244Z 00000KT 8SM BKN015 BKN250 27/23 A2993 RMK 8/401

Hora: 22:49 (04:49 UTC)


TAF: manca

Observacions i pronòstics meteorològics de més de 4000 aeroports (METAR i TAF).

Les estacions disponibles són els punts grocs i vermells al mapa.

Posi el ratolí al punt desitjat per veure el nom de l'estació.

Feu clic per veure les observacions i els pronòstics meteorològics.

Per canviar el mapa: feu clic els botons verds amb una creu de color negre per apropar; al botó verd amb un guió per allunyar la imatge; o en les fletxes verdes per a mapes adjacents.


METAR-TAF: